createdAt,value
2018-11-12T00:00:33.369Z,11.1
2018-11-12T00:04:02.336Z,11.2
2018-11-12T00:07:30.329Z,10.1
2018-11-12T00:10:58.319Z,10.8
2018-11-12T00:14:26.293Z,9.6
2018-11-12T00:17:54.285Z,9.9
2018-11-12T00:21:22.271Z,9.9
2018-11-12T00:24:50.244Z,9.9
2018-11-12T00:28:18.231Z,9.6
2018-11-12T00:31:46.219Z,9.9
2018-11-12T00:35:14.216Z,9.6
2018-11-12T00:38:42.186Z,9.7
2018-11-12T00:42:10.169Z,9.6
2018-11-12T00:45:38.161Z,10.2
2018-11-12T00:49:12.755Z,9.6
2018-11-12T00:52:40.725Z,10.2
2018-11-12T00:56:08.698Z,9.2
2018-11-12T00:59:36.648Z,9.5
2018-11-12T01:03:04.624Z,8.6
2018-11-12T01:06:32.595Z,8.7
2018-11-12T01:10:01.545Z,7.9
2018-11-12T01:13:29.517Z,7.8
2018-11-12T01:16:57.485Z,7.7
2018-11-12T01:20:25.456Z,7.1
2018-11-12T01:23:53.404Z,6.8
2018-11-12T01:27:21.378Z,6.7
2018-11-12T01:30:49.347Z,6.7
2018-11-12T01:34:17.323Z,6.7
2018-11-12T01:37:46.264Z,6.1
2018-11-12T01:41:14.238Z,6.1
2018-11-12T01:44:42.219Z,6.1
2018-11-12T01:48:10.170Z,6.1
2018-11-12T01:51:38.142Z,6.4
2018-11-12T01:55:06.117Z,5.9
2018-11-12T01:58:34.062Z,6.3
2018-11-12T02:02:02.029Z,6.1
2018-11-12T02:05:30.011Z,5.7
2018-11-12T02:08:59.045Z,6
2018-11-12T02:12:26.921Z,6
2018-11-12T02:15:54.899Z,5.7
2018-11-12T02:19:22.858Z,6
2018-11-12T02:22:50.938Z,6
2018-11-12T02:26:18.787Z,6
2018-11-12T02:29:47.115Z,5.9
2018-11-12T02:33:15.214Z,6.2
2018-11-12T02:36:44.033Z,6
2018-11-12T02:40:12.001Z,6.1
2018-11-12T02:43:39.953Z,6.4
2018-11-12T02:47:07.921Z,6.2
2018-11-12T02:50:35.890Z,6.4
2018-11-12T02:54:04.837Z,6.4
2018-11-12T02:57:32.896Z,6.3
2018-11-12T03:01:00.767Z,6.4
2018-11-12T03:04:28.729Z,6.9
2018-11-12T03:07:56.686Z,6.8
2018-11-12T03:11:24.655Z,6.9
2018-11-12T03:14:52.729Z,6.6
2018-11-12T03:18:20.680Z,6.8
2018-11-12T03:21:48.643Z,6.7
2018-11-12T03:25:17.807Z,6.7
2018-11-12T03:28:45.747Z,7.2
2018-11-12T03:32:13.717Z,7
2018-11-12T03:35:41.686Z,6.9
2018-11-12T03:39:09.641Z,6.8
2018-11-12T03:42:37.609Z,7.2
2018-11-12T03:46:05.581Z,7.1
2018-11-12T03:49:33.532Z,7
2018-11-12T03:53:08.523Z,7.3
2018-11-12T03:56:36.487Z,7
2018-11-12T04:00:05.490Z,7
2018-11-12T04:03:33.398Z,6.6
2018-11-12T04:07:01.365Z,6.8
2018-11-12T04:10:29.347Z,7.1
2018-11-12T04:13:57.299Z,6.6
2018-11-12T04:17:25.272Z,6.9
2018-11-12T04:20:53.239Z,6.7
2018-11-12T04:24:21.191Z,6.8
2018-11-12T04:27:49.163Z,6.6
2018-11-12T04:31:17.136Z,6.7
2018-11-12T04:34:45.087Z,6.9
2018-11-12T04:38:13.049Z,6.4
2018-11-12T04:41:41.021Z,6.5
2018-11-12T04:45:08.983Z,6.6
2018-11-12T04:48:36.957Z,6.9
2018-11-12T04:52:05.955Z,6.5
2018-11-12T04:55:34.903Z,7
2018-11-12T04:59:02.856Z,7.5
2018-11-12T05:02:31.806Z,6.5
2018-11-12T05:05:59.772Z,7.3
2018-11-12T05:09:27.724Z,6.8
2018-11-12T05:12:56.684Z,7.4
2018-11-12T05:16:24.676Z,6.8
2018-11-12T05:19:52.621Z,6.9
2018-11-12T05:23:21.567Z,7.3
2018-11-12T05:26:49.537Z,7.4
2018-11-12T05:30:17.518Z,7.2
2018-11-12T05:33:46.463Z,7
2018-11-12T05:37:14.437Z,7.1
2018-11-12T05:40:42.405Z,7.6
2018-11-12T05:44:10.354Z,8.1
2018-11-12T05:47:38.323Z,7.6
2018-11-12T05:51:06.290Z,7.7
2018-11-12T05:54:34.242Z,8
2018-11-12T05:58:02.218Z,8.5
2018-11-12T06:01:30.191Z,8.4
2018-11-12T06:04:58.245Z,8.6
2018-11-12T06:08:26.102Z,8.5
2018-11-12T06:11:54.066Z,8.8
2018-11-12T06:15:22.028Z,9.1
2018-11-12T06:18:50.971Z,9.3
2018-11-12T06:22:18.944Z,9.5
2018-11-12T06:25:46.906Z,9.8
2018-11-12T06:29:15.891Z,9.3
2018-11-12T06:32:43.838Z,9.2
2018-11-12T06:36:11.805Z,9
2018-11-12T06:39:39.774Z,10.3
2018-11-12T06:43:07.735Z,10.2
2018-11-12T06:46:35.701Z,10.1
2018-11-12T06:50:03.661Z,10.6
2018-11-12T06:53:31.654Z,10.5
2018-11-12T06:56:59.583Z,11.4
2018-11-12T07:00:27.550Z,10.8
2018-11-12T07:03:55.701Z,10.5
2018-11-12T07:07:23.665Z,10.9
2018-11-12T07:10:51.640Z,10.5
2018-11-12T07:14:19.725Z,10.8
2018-11-12T07:17:48.665Z,10.6
2018-11-12T07:21:16.637Z,11.2
2018-11-12T07:24:44.610Z,11
2018-11-12T07:28:12.567Z,10.6
2018-11-12T07:31:40.541Z,10.6
2018-11-12T07:35:08.507Z,11.3
2018-11-12T07:38:36.462Z,11
2018-11-12T07:42:05.450Z,11.1
2018-11-12T07:45:33.401Z,11
2018-11-12T07:49:01.355Z,10.8
2018-11-12T07:52:29.326Z,11.2
2018-11-12T07:55:57.300Z,11
2018-11-12T07:59:25.255Z,11.7
2018-11-12T08:02:53.256Z,11.6
2018-11-12T08:06:21.379Z,11.4
2018-11-12T08:09:49.355Z,11.6
2018-11-12T08:13:17.318Z,11
2018-11-12T08:16:45.293Z,10.8
2018-11-12T08:20:13.265Z,10.1
2018-11-12T08:23:42.223Z,11.2
2018-11-12T08:27:10.190Z,10.4
2018-11-12T08:30:38.158Z,11
2018-11-12T08:34:06.118Z,10
2018-11-12T08:37:34.094Z,10.5
2018-11-12T08:41:02.149Z,9.9
2018-11-12T08:44:30.014Z,9.8
2018-11-12T08:47:57.987Z,9.5
2018-11-12T08:51:25.952Z,9.8
2018-11-12T08:54:53.959Z,10
2018-11-12T08:58:22.872Z,10.3
2018-11-12T09:01:50.838Z,9.3
2018-11-12T09:05:18.789Z,10
2018-11-12T09:08:46.756Z,10
2018-11-12T09:12:15.730Z,10.8
2018-11-12T09:15:43.761Z,11.3
2018-11-12T09:19:11.650Z,10.8
2018-11-12T09:22:39.619Z,11.1
2018-11-12T09:26:07.582Z,10.7
2018-11-12T09:29:36.660Z,10.5
2018-11-12T09:33:04.503Z,10.7
2018-11-12T09:36:32.471Z,10.3
2018-11-12T09:40:00.431Z,11
2018-11-12T09:43:28.404Z,10.9
2018-11-12T09:46:56.381Z,10.9
2018-11-12T09:50:24.355Z,10.8
2018-11-12T09:53:52.405Z,10.8
2018-11-12T09:57:20.289Z,10.9
2018-11-12T10:00:48.511Z,11.1
2018-11-12T10:04:17.567Z,11.4
2018-11-12T10:07:49.211Z,11
2018-11-12T10:11:20.065Z,11.4
2018-11-12T10:14:50.083Z,12.5
2018-11-12T10:18:15.988Z,13.3
2018-11-12T10:21:43.960Z,12.2
2018-11-12T10:25:11.910Z,12.7
2018-11-12T10:28:40.871Z,12.9
2018-11-12T10:32:08.845Z,13.1
2018-11-12T10:35:36.804Z,13.6
2018-11-12T10:39:04.763Z,13.9
2018-11-12T10:42:32.769Z,13.5
2018-11-12T10:46:00.713Z,14
2018-11-12T10:49:28.660Z,13.7
2018-11-12T10:52:56.642Z,14.3
2018-11-12T10:56:24.599Z,14
2018-11-12T10:59:52.643Z,14.2
2018-11-12T11:03:20.524Z,13.4
2018-11-12T11:06:48.486Z,14.1
2018-11-12T11:10:16.450Z,15.1
2018-11-12T11:13:44.485Z,15.1
2018-11-12T11:17:13.379Z,14.9
2018-11-12T11:20:41.360Z,15.3
2018-11-12T11:24:09.305Z,15.3
2018-11-12T11:27:38.269Z,15.5
2018-11-12T11:31:06.241Z,15.7
2018-11-12T11:34:35.914Z,16.299999
2018-11-12T11:38:03.889Z,16.1
2018-11-12T11:41:31.863Z,15.8
2018-11-12T11:44:59.811Z,16.200001
2018-11-12T11:48:27.774Z,16.9
2018-11-12T11:51:56.741Z,16.5
2018-11-12T11:55:24.697Z,17.1
2018-11-12T11:58:52.669Z,18.200001
2018-11-12T12:02:20.681Z,17.4
2018-11-12T12:05:48.616Z,18.799999
2018-11-12T12:09:16.577Z,19
2018-11-12T12:12:44.534Z,17.6
2018-11-12T12:16:13.502Z,16.799999
2018-11-12T12:19:41.461Z,18.1
2018-11-12T12:23:10.419Z,18
2018-11-12T12:26:38.381Z,17.700001
2018-11-12T12:30:06.333Z,18
2018-11-12T12:33:34.334Z,18.299999
2018-11-12T12:37:02.307Z,19.6
2018-11-12T12:40:30.271Z,20
2018-11-12T12:43:58.225Z,20
2018-11-12T12:47:26.197Z,20.1
2018-11-12T12:50:54.175Z,18.700001
2018-11-12T12:54:24.797Z,17.299999
2018-11-12T12:57:53.944Z,17.200001
2018-11-12T13:01:22.942Z,17.299999
2018-11-12T13:04:53.686Z,16.9
2018-11-12T13:08:20.865Z,16
2018-11-12T13:11:50.810Z,17.700001
2018-11-12T13:15:18.790Z,18
2018-11-12T13:18:54.722Z,18.299999
2018-11-12T13:22:23.334Z,17.799999
2018-11-12T13:25:52.540Z,16.6
2018-11-12T13:29:20.646Z,16.6
2018-11-12T13:32:48.465Z,16.799999
2018-11-12T13:36:16.443Z,17.6
2018-11-12T13:39:45.081Z,16.799999
2018-11-12T13:43:14.932Z,15.9
2018-11-12T13:46:43.128Z,15.5
2018-11-12T13:50:13.002Z,16.4
2018-11-12T13:53:41.805Z,15.7
2018-11-12T13:57:09.767Z,17.4
2018-11-12T14:00:39.019Z,17.9
2018-11-12T14:04:07.743Z,17.4
2018-11-12T14:07:35.755Z,17.299999
2018-11-12T14:11:03.899Z,18.1
2018-11-12T14:14:33.633Z,17.9
2018-11-12T14:18:11.844Z,18.9
2018-11-12T14:21:42.134Z,19.200001
2018-11-12T14:25:12.858Z,18.200001
2018-11-12T14:28:40.974Z,19.1
2018-11-12T14:32:09.803Z,19.299999
2018-11-12T14:35:44.113Z,19.799999
2018-11-12T14:39:17.018Z,20.6
2018-11-12T14:42:48.747Z,21.799999
2018-11-12T14:46:18.277Z,20.4
2018-11-12T14:49:47.383Z,21.4
2018-11-12T14:53:15.542Z,20.9
2018-11-12T14:56:43.653Z,21.200001
2018-11-12T15:00:12.016Z,21.700001
2018-11-12T15:03:40.489Z,21.799999
2018-11-12T15:07:17.875Z,22.1
2018-11-12T15:10:48.687Z,22.4
2018-11-12T15:14:24.034Z,22.9
2018-11-12T15:17:54.347Z,21.9
2018-11-12T15:21:30.486Z,22.6
2018-11-12T15:24:58.702Z,24.6
2018-11-12T15:28:34.829Z,27.5
2018-11-12T15:32:02.882Z,25.9
2018-11-12T15:35:32.253Z,21.9
2018-11-12T15:39:00.193Z,21.700001
2018-11-12T15:42:28.184Z,22.200001
2018-11-12T15:45:57.269Z,21.700001
2018-11-12T15:49:25.392Z,20.5
2018-11-12T15:52:53.295Z,20.9
2018-11-12T15:56:21.262Z,21.700001
2018-11-12T15:59:49.229Z,21
2018-11-12T16:03:17.178Z,24.299999
2018-11-12T16:06:45.242Z,21.6
2018-11-12T16:10:13.109Z,21
2018-11-12T16:13:42.061Z,20.9
2018-11-12T16:17:10.024Z,21
2018-11-12T16:20:38.000Z,21.1
2018-11-12T16:24:05.955Z,20.200001
2018-11-12T16:27:33.925Z,19.299999
2018-11-12T16:31:01.893Z,18.5
2018-11-12T16:34:29.853Z,19.9
2018-11-12T16:37:58.806Z,19
2018-11-12T16:41:26.786Z,18.799999
2018-11-12T16:44:54.735Z,19
2018-11-12T16:48:24.531Z,17.4
2018-11-12T16:51:53.493Z,18.299999
2018-11-12T16:55:22.463Z,17.1
2018-11-12T16:58:50.414Z,17.4
2018-11-12T17:02:18.381Z,16.4
2018-11-12T17:05:46.354Z,15.3
2018-11-12T17:09:14.351Z,15.1
2018-11-12T17:12:42.323Z,16.200001
2018-11-12T17:16:10.293Z,16.200001
2018-11-12T17:19:38.253Z,15.8
2018-11-12T17:23:07.443Z,16.700001
2018-11-12T17:26:35.288Z,17.6
2018-11-12T17:30:03.246Z,20
2018-11-12T17:33:31.216Z,16.700001
2018-11-12T17:36:59.264Z,15
2018-11-12T17:40:27.235Z,13.6
2018-11-12T17:43:55.192Z,13.5
2018-11-12T17:47:23.162Z,12.6
2018-11-12T17:50:51.369Z,11.7
2018-11-12T17:54:19.395Z,12.2
2018-11-12T17:57:47.303Z,11.8
2018-11-12T18:01:15.326Z,11
2018-11-12T18:04:43.233Z,11.1
2018-11-12T18:08:11.276Z,13.4
2018-11-12T18:11:39.178Z,14.2
2018-11-12T18:15:07.160Z,11.7
2018-11-12T18:18:35.145Z,11.7
2018-11-12T18:22:03.125Z,12.3
2018-11-12T18:25:31.080Z,11.4
2018-11-12T18:29:00.033Z,11.4
2018-11-12T18:32:28.011Z,11
2018-11-12T18:35:55.981Z,11.2
2018-11-12T18:39:23.966Z,11.2
2018-11-12T18:42:51.933Z,10.6
2018-11-12T18:46:19.905Z,10.6
2018-11-12T18:49:47.872Z,11.1
2018-11-12T18:53:16.984Z,10.1
2018-11-12T18:56:44.952Z,11
2018-11-12T19:00:12.903Z,11
2018-11-12T19:03:40.868Z,10.6
2018-11-12T19:07:08.851Z,11.5
2018-11-12T19:10:37.826Z,10.6
2018-11-12T19:14:05.783Z,10.6
2018-11-12T19:17:34.462Z,10.8
2018-11-12T19:21:02.476Z,10.6
2018-11-12T19:24:31.386Z,10.2
2018-11-12T19:27:59.359Z,10.3
2018-11-12T19:31:27.331Z,10.1
2018-11-12T19:34:55.282Z,9.9
2018-11-12T19:38:23.245Z,10
2018-11-12T19:41:52.202Z,10.2
2018-11-12T19:45:31.921Z,9.7
2018-11-12T19:50:11.826Z,10.2
2018-11-12T19:53:39.902Z,9.8
2018-11-12T19:57:07.888Z,10.3
2018-11-12T20:00:35.963Z,10
2018-11-12T20:04:04.668Z,10.3
2018-11-12T20:07:32.676Z,10.3
2018-11-12T20:11:01.559Z,10.5
2018-11-12T20:14:30.544Z,10
2018-11-12T20:17:58.580Z,9.8
2018-11-12T20:21:27.480Z,9.4
2018-11-12T20:24:55.494Z,10.1
2018-11-12T20:28:23.461Z,10.7
2018-11-12T20:31:51.488Z,9.2
2018-11-12T20:35:20.505Z,9.2
2018-11-12T20:38:48.732Z,9.7
2018-11-12T20:42:16.610Z,9.8
2018-11-12T20:45:45.608Z,9.4
2018-11-12T20:49:13.574Z,8.6
2018-11-12T20:52:41.592Z,8.4
2018-11-12T20:56:09.508Z,8.5
2018-11-12T20:59:37.449Z,8.8
2018-11-12T21:03:05.507Z,8.9
2018-11-12T21:06:33.473Z,8.9
2018-11-12T21:10:02.438Z,8.3
2018-11-12T21:13:30.403Z,7.8
